Time;durP1;ratioP1;P1;durP2;ratioP2;P2;SDS_P1;SDS_P2;PMS_P1;PMS_P2;Temp;Humidity;BMP_temperature;BMP_pressure;BME280_temperature;BME280_humidity;BME280_pressure;Samples;Min_cycle;Max_cycle;Signal;HPM_P1;HPM_P2
2023/06/12 00:00:48;;;;;;;15.85;4.90;;;;;;;;;;5034214;28;20033;-71
2023/06/12 00:03:14;;;;;;;12.55;3.47;;;;;;;;;;5041649;28;20029;-72
2023/06/12 00:05:43;;;;;;;14.52;3.95;;;;;;;;;;5032518;28;20075;-72
2023/06/12 00:08:11;;;;;;;12.75;4.85;;;;;;;;;;5032681;28;20028;-73
2023/06/12 00:10:38;;;;;;;11.93;3.78;;;;;;;;;;5031649;28;20434;-72
2023/06/12 00:13:04;;;;;;;17.52;4.25;;;;;;;;;;5032765;28;20021;-73
2023/06/12 00:15:30;;;;;;;10.38;3.88;;;;;;;;;;5032625;28;20025;-72
2023/06/12 00:17:56;;;;;;;13.77;3.88;;;;;;;;;;5033029;28;20020;-72
2023/06/12 00:20:22;;;;;;;13.00;4.00;;;;;;;;;;5032224;28;20033;-72
2023/06/12 00:22:48;;;;;;;15.77;4.15;;;;;;;;;;5032269;28;20104;-72
2023/06/12 00:25:14;;;;;;;16.40;4.45;;;;;;;;;;5032332;28;20052;-72
2023/06/12 00:27:40;;;;;;;11.38;4.05;;;;;;;;;;5032342;28;20061;-73
2023/06/12 00:30:06;;;;;;;17.98;4.13;;;;;;;;;;5032276;28;20112;-74
2023/06/12 00:32:32;;;;;;;19.40;4.80;;;;;;;;;;5033802;28;20046;-72
2023/06/12 00:34:58;;;;;;;18.05;4.22;;;;;;;;;;5034237;28;20022;-72
2023/06/12 00:37:24;;;;;;;11.77;4.25;;;;;;;;;;5033851;28;20365;-73
2023/06/12 00:39:51;;;;;;;13.68;3.97;;;;;;;;;;5033721;28;20028;-72
2023/06/12 00:42:17;;;;;;;17.80;4.40;;;;;;;;;;5034330;28;20021;-75
2023/06/12 00:44:43;;;;;;;18.17;4.50;;;;;;;;;;5034395;28;20391;-72
2023/06/12 00:47:10;;;;;;;10.93;4.10;;;;;;;;;;5032919;28;20036;-72
2023/06/12 00:49:37;;;;;;;13.45;4.35;;;;;;;;;;5032879;28;20053;-73
2023/06/12 00:52:03;;;;;;;12.32;4.20;;;;;;;;;;5031816;28;20030;-72
2023/06/12 00:54:29;;;;;;;10.90;4.13;;;;;;;;;;5032242;28;20558;-72
2023/06/12 00:56:56;;;;;;;12.85;4.25;;;;;;;;;;5031850;28;20025;-72
2023/06/12 00:59:23;;;;;;;14.20;4.75;;;;;;;;;;5031955;28;20509;-72
2023/06/12 01:01:50;;;;;;;13.40;4.72;;;;;;;;;;5031794;28;20100;-72
2023/06/12 01:04:16;;;;;;;14.93;4.22;;;;;;;;;;5031669;28;20021;-71
2023/06/12 01:06:51;;;;;;;15.82;4.28;;;;;;;;;;5031605;28;20069;-72
2023/06/12 01:09:28;;;;;;;14.25;4.47;;;;;;;;;;5031513;28;20064;-72
2023/06/12 01:11:55;;;;;;;11.88;4.43;;;;;;;;;;5031549;28;20057;-72
2023/06/12 01:14:21;;;;;;;11.60;3.90;;;;;;;;;;5031601;28;20056;-75
2023/06/12 01:16:47;;;;;;;10.15;3.97;;;;;;;;;;5031575;28;20075;-72
2023/06/12 01:19:19;;;;;;;11.50;3.65;;;;;;;;;;5031232;28;20506;-72
2023/06/12 01:21:48;;;;;;;19.08;4.60;;;;;;;;;;5030926;28;20443;-71
2023/06/12 01:24:40;;;;;;;12.25;4.32;;;;;;;;;;5031431;28;20018;-73
2023/06/12 01:27:09;;;;;;;9.15;4.40;;;;;;;;;;5029476;28;20479;-72
2023/06/12 01:29:54;;;;;;;20.17;4.97;;;;;;;;;;5031670;28;20030;-72
2023/06/12 01:32:20;;;;;;;12.20;4.63;;;;;;;;;;5029956;28;20542;-73
2023/06/12 01:34:54;;;;;;;13.75;4.30;;;;;;;;;;5031835;28;20032;-72
2023/06/12 01:37:26;;;;;;;12.38;4.57;;;;;;;;;;5031607;28;20026;-73
2023/06/12 01:39:57;;;;;;;17.58;5.50;;;;;;;;;;5031165;28;20615;-72
2023/06/12 01:42:24;;;;;;;14.27;4.93;;;;;;;;;;5030497;28;20084;-72
2023/06/12 01:44:50;;;;;;;12.50;5.00;;;;;;;;;;5031310;28;20119;-72
2023/06/12 01:47:16;;;;;;;12.30;4.65;;;;;;;;;;5031291;28;20395;-72
2023/06/12 01:49:42;;;;;;;14.40;4.85;;;;;;;;;;5031621;28;20032;-72
2023/06/12 01:52:08;;;;;;;15.90;4.90;;;;;;;;;;5039148;28;20033;-73
2023/06/12 01:54:35;;;;;;;10.25;4.60;;;;;;;;;;5031073;28;20033;-72
2023/06/12 01:57:02;;;;;;;11.32;4.57;;;;;;;;;;5031225;28;20101;-72
2023/06/12 01:59:28;;;;;;;17.08;5.40;;;;;;;;;;5031358;28;20029;-72
2023/06/12 02:01:53;;;;;;;18.85;7.18;;;;;;;;;;5030068;28;20025;-72
2023/06/12 02:04:19;;;;;;;17.05;5.70;;;;;;;;;;5030561;28;20048;-72
2023/06/12 02:06:46;;;;;;;18.27;5.60;;;;;;;;;;5030884;28;20025;-73
2023/06/12 02:09:12;;;;;;;17.48;6.45;;;;;;;;;;5030833;28;20106;-72
2023/06/12 02:11:38;;;;;;;11.73;5.65;;;;;;;;;;5030954;28;20372;-73
2023/06/12 02:14:04;;;;;;;12.07;5.35;;;;;;;;;;5030803;28;20100;-72
2023/06/12 02:16:30;;;;;;;17.80;5.55;;;;;;;;;;5030776;28;20522;-72
2023/06/12 02:18:56;;;;;;;14.25;4.72;;;;;;;;;;5030712;28;20108;-72
2023/06/12 02:21:22;;;;;;;15.35;7.18;;;;;;;;;;5031215;28;20053;-72
2023/06/12 02:23:49;;;;;;;14.45;5.85;;;;;;;;;;5032373;28;20040;-72
2023/06/12 02:26:16;;;;;;;16.08;6.03;;;;;;;;;;5031474;28;20025;-72
2023/06/12 02:28:42;;;;;;;13.23;4.55;;;;;;;;;;5034055;28;20091;-72
2023/06/12 02:31:08;;;;;;;17.88;5.68;;;;;;;;;;5032839;28;20025;-73
2023/06/12 02:33:37;;;;;;;19.75;6.75;;;;;;;;;;5032443;28;20033;-73
2023/06/12 02:36:03;;;;;;;22.25;6.47;;;;;;;;;;5035458;28;20021;-73
2023/06/12 02:38:29;;;;;;;19.73;9.00;;;;;;;;;;5035289;28;20593;-73
2023/06/12 02:40:55;;;;;;;18.70;5.28;;;;;;;;;;5034919;28;20108;-72
2023/06/12 02:43:21;;;;;;;20.92;5.65;;;;;;;;;;5034299;28;20025;-72
2023/06/12 02:45:47;;;;;;;17.08;5.55;;;;;;;;;;5034438;28;20030;-72
2023/06/12 02:48:13;;;;;;;21.15;5.15;;;;;;;;;;5035059;28;20025;-72
2023/06/12 02:50:39;;;;;;;19.70;6.05;;;;;;;;;;5035544;28;20506;-72
2023/06/12 02:53:05;;;;;;;16.48;6.97;;;;;;;;;;5035412;28;20499;-72
2023/06/12 02:55:31;;;;;;;20.38;7.47;;;;;;;;;;5036008;28;20434;-72
2023/06/12 02:57:57;;;;;;;21.23;8.82;;;;;;;;;;5034880;28;20108;-72
2023/06/12 03:00:23;;;;;;;29.92;13.40;;;;;;;;;;5034667;28;20509;-74
2023/06/12 03:02:55;;;;;;;14.93;5.38;;;;;;;;;;5034356;28;20103;-72
2023/06/12 03:05:25;;;;;;;29.50;9.27;;;;;;;;;;5033656;28;20026;-72
2023/06/12 03:07:52;;;;;;;28.60;7.00;;;;;;;;;;5033946;28;20091;-73
2023/06/12 03:10:18;;;;;;;18.10;6.55;;;;;;;;;;5033843;28;20065;-73
2023/06/12 03:12:45;;;;;;;18.85;6.18;;;;;;;;;;5033236;28;20025;-73
2023/06/12 03:15:14;;;;;;;11.70;5.40;;;;;;;;;;5033981;28;20040;-73
2023/06/12 03:17:40;;;;;;;17.75;7.15;;;;;;;;;;5033759;28;20083;-72
2023/06/12 03:20:07;;;;;;;19.10;6.53;;;;;;;;;;5033688;28;20049;-73
2023/06/12 03:22:33;;;;;;;31.10;6.25;;;;;;;;;;5033119;28;20040;-72
2023/06/12 03:24:59;;;;;;;19.23;8.32;;;;;;;;;;5034242;28;20033;-73
2023/06/12 03:27:29;;;;;;;26.38;6.25;;;;;;;;;;5034314;28;20075;-73
2023/06/12 03:29:55;;;;;;;25.08;6.40;;;;;;;;;;5034201;28;20022;-73
2023/06/12 03:32:21;;;;;;;18.10;6.40;;;;;;;;;;5033088;28;20041;-73
2023/06/12 03:34:47;;;;;;;16.00;4.93;;;;;;;;;;5033206;28;20079;-73
2023/06/12 03:37:13;;;;;;;11.15;4.97;;;;;;;;;;5033128;28;20100;-73
2023/06/12 03:39:39;;;;;;;14.98;5.47;;;;;;;;;;5033201;28;20033;-73
2023/06/12 03:42:06;;;;;;;18.80;5.10;;;;;;;;;;5032782;28;20017;-73
2023/06/12 03:44:32;;;;;;;24.10;5.25;;;;;;;;;;5032931;28;20179;-73
2023/06/12 03:46:58;;;;;;;16.08;4.43;;;;;;;;;;5033109;28;20033;-73
2023/06/12 03:49:24;;;;;;;19.27;5.63;;;;;;;;;;5032927;28;20029;-73
2023/06/12 03:51:50;;;;;;;16.83;6.03;;;;;;;;;;5032881;28;20491;-73
2023/06/12 03:54:18;;;;;;;18.73;5.40;;;;;;;;;;5032964;28;20033;-72
2023/06/12 03:56:44;;;;;;;14.38;5.43;;;;;;;;;;5032779;28;20116;-73
2023/06/12 03:59:10;;;;;;;15.35;5.28;;;;;;;;;;5033021;28;20057;-73
2023/06/12 04:01:38;;;;;;;18.60;5.00;;;;;;;;;;5032570;28;20025;-73
2023/06/12 04:04:04;;;;;;;14.30;5.30;;;;;;;;;;5032461;28;20018;-73
2023/06/12 04:06:32;;;;;;;13.57;5.40;;;;;;;;;;5032732;28;20033;-71
2023/06/12 04:09:00;;;;;;;24.88;4.80;;;;;;;;;;5032726;28;20502;-72
2023/06/12 04:11:27;;;;;;;18.85;4.93;;;;;;;;;;5032657;28;20040;-72
2023/06/12 04:13:53;;;;;;;13.10;5.22;;;;;;;;;;5033236;28;20037;-74
2023/06/12 04:16:20;;;;;;;13.63;5.07;;;;;;;;;;5033778;28;20035;-72
2023/06/12 04:18:46;;;;;;;11.77;4.80;;;;;;;;;;5033613;28;20028;-73
2023/06/12 04:21:12;;;;;;;11.65;4.40;;;;;;;;;;5033502;28;20060;-73
2023/06/12 04:23:41;;;;;;;12.85;5.57;;;;;;;;;;5031841;28;20075;-74
2023/06/12 04:26:07;;;;;;;18.77;6.20;;;;;;;;;;5036050;28;20105;-77
2023/06/12 04:28:36;;;;;;;16.30;6.75;;;;;;;;;;5029855;28;20025;-76
2023/06/12 04:31:03;;;;;;;13.65;6.47;;;;;;;;;;5034568;28;20029;-77
2023/06/12 04:33:35;;;;;;;18.38;7.13;;;;;;;;;;5033704;28;20025;-77
2023/06/12 04:36:01;;;;;;;17.13;6.82;;;;;;;;;;5033393;28;20040;-77
2023/06/12 04:38:30;;;;;;;18.60;7.07;;;;;;;;;;5031991;28;20104;-76
2023/06/12 04:40:58;;;;;;;15.93;6.25;;;;;;;;;;5031857;28;20021;-76
2023/06/12 04:43:24;;;;;;;13.88;5.50;;;;;;;;;;5033936;28;20071;-78
2023/06/12 04:45:51;;;;;;;18.27;6.57;;;;;;;;;;5037779;28;20109;-79
2023/06/12 04:48:18;;;;;;;15.05;5.15;;;;;;;;;;5036504;28;20028;-79
2023/06/12 04:50:44;;;;;;;12.48;5.03;;;;;;;;;;5034479;28;20483;-73
2023/06/12 04:53:12;;;;;;;13.98;5.35;;;;;;;;;;5032910;28;20498;-74
2023/06/12 04:55:40;;;;;;;14.45;5.38;;;;;;;;;;5032832;28;20440;-73
2023/06/12 04:58:06;;;;;;;10.32;4.95;;;;;;;;;;5033199;28;20022;-72
2023/06/12 05:00:32;;;;;;;19.40;5.60;;;;;;;;;;5031447;28;20478;-72
2023/06/12 05:02:59;;;;;;;15.48;5.53;;;;;;;;;;5034309;28;20092;-73
2023/06/12 05:05:27;;;;;;;15.43;5.35;;;;;;;;;;5036280;28;20434;-73
2023/06/12 05:07:53;;;;;;;21.75;5.90;;;;;;;;;;5036731;28;20064;-74
2023/06/12 05:10:19;;;;;;;15.55;5.20;;;;;;;;;;5032249;28;20486;-73
2023/06/12 05:12:45;;;;;;;14.25;5.25;;;;;;;;;;5035291;28;20030;-72
2023/06/12 05:15:11;;;;;;;18.02;6.13;;;;;;;;;;5037399;28;20104;-74
2023/06/12 05:17:38;;;;;;;15.07;5.15;;;;;;;;;;5032966;28;20077;-74
2023/06/12 05:20:08;;;;;;;21.77;5.80;;;;;;;;;;5038547;28;20716;-74
2023/06/12 05:22:35;;;;;;;16.83;5.65;;;;;;;;;;5031581;28;20025;-73
2023/06/12 05:25:03;;;;;;;13.82;5.70;;;;;;;;;;5033596;28;20041;-73
2023/06/12 05:27:29;;;;;;;15.55;5.72;;;;;;;;;;5035684;28;20052;-75
2023/06/12 05:29:55;;;;;;;13.38;5.50;;;;;;;;;;5030820;28;20053;-77
2023/06/12 05:32:21;;;;;;;18.13;5.68;;;;;;;;;;5030365;28;20460;-73
2023/06/12 05:34:47;;;;;;;25.33;6.50;;;;;;;;;;5030855;28;20053;-75
2023/06/12 05:37:13;;;;;;;14.00;5.47;;;;;;;;;;5039184;28;20033;-74
2023/06/12 05:39:39;;;;;;;19.02;6.10;;;;;;;;;;5033317;28;20025;-74
2023/06/12 05:42:05;;;;;;;14.25;5.68;;;;;;;;;;5031404;28;20025;-73
2023/06/12 05:44:31;;;;;;;17.77;5.50;;;;;;;;;;5033772;28;20026;-73
2023/06/12 05:46:57;;;;;;;15.70;5.70;;;;;;;;;;5037764;28;20034;-74
2023/06/12 05:49:23;;;;;;;19.13;5.82;;;;;;;;;;5035785;28;20079;-75
2023/06/12 05:51:49;;;;;;;19.45;5.65;;;;;;;;;;5033114;28;20053;-72
2023/06/12 05:54:15;;;;;;;23.75;6.28;;;;;;;;;;5037350;28;20438;-72
2023/06/12 05:56:41;;;;;;;27.10;6.35;;;;;;;;;;5031119;28;20022;-72
2023/06/12 05:59:07;;;;;;;17.42;5.85;;;;;;;;;;5031734;28;20053;-72
2023/06/12 06:01:33;;;;;;;14.05;6.22;;;;;;;;;;5033977;28;20048;-72
2023/06/12 06:03:59;;;;;;;15.05;7.00;;;;;;;;;;5038490;28;20036;-72
2023/06/12 06:06:25;;;;;;;15.50;6.10;;;;;;;;;;5030868;28;20145;-73
2023/06/12 06:08:51;;;;;;;19.55;6.32;;;;;;;;;;5033462;28;20072;-76
2023/06/12 06:11:17;;;;;;;12.93;6.10;;;;;;;;;;5035049;28;20049;-71
2023/06/12 06:13:44;;;;;;;20.52;5.72;;;;;;;;;;5037671;28;20033;-71
2023/06/12 06:16:12;;;;;;;20.55;5.82;;;;;;;;;;5036053;28;20040;-73
2023/06/12 06:18:39;;;;;;;10.95;5.80;;;;;;;;;;5036673;28;20029;-73
2023/06/12 06:21:05;;;;;;;11.68;6.68;;;;;;;;;;5034631;28;20471;-72
2023/06/12 06:23:32;;;;;;;27.45;6.45;;;;;;;;;;5034328;28;20036;-72
2023/06/12 06:25:58;;;;;;;25.00;5.95;;;;;;;;;;5035150;28;20341;-71
2023/06/12 06:28:24;;;;;;;18.95;6.35;;;;;;;;;;5035199;28;20069;-72
2023/06/12 06:30:50;;;;;;;12.40;6.95;;;;;;;;;;5034223;28;20053;-72
2023/06/12 06:33:16;;;;;;;21.98;6.80;;;;;;;;;;5036813;28;20041;-71
2023/06/12 06:35:43;;;;;;;16.27;6.75;;;;;;;;;;5038147;28;20116;-70
2023/06/12 06:38:09;;;;;;;23.60;7.72;;;;;;;;;;5035521;28;20108;-74
2023/06/12 06:40:35;;;;;;;26.92;6.97;;;;;;;;;;5035664;28;20056;-74
2023/06/12 06:43:01;;;;;;;11.95;6.18;;;;;;;;;;5034737;28;20124;-71
2023/06/12 06:45:27;;;;;;;16.88;6.38;;;;;;;;;;5034234;28;20021;-71
2023/06/12 06:47:53;;;;;;;13.43;6.03;;;;;;;;;;5034073;28;20026;-70
2023/06/12 06:50:19;;;;;;;14.68;6.43;;;;;;;;;;5034014;28;20505;-73
2023/06/12 06:52:45;;;;;;;17.20;6.28;;;;;;;;;;5033786;28;20134;-72
2023/06/12 06:55:11;;;;;;;12.82;6.50;;;;;;;;;;5034781;28;20073;-72
2023/06/12 06:57:38;;;;;;;23.80;6.85;;;;;;;;;;5034413;28;20045;-72
2023/06/12 07:00:05;;;;;;;21.08;6.50;;;;;;;;;;5033571;28;20099;-71
2023/06/12 07:02:32;;;;;;;20.45;6.50;;;;;;;;;;5033454;28;20017;-74
2023/06/12 07:04:58;;;;;;;11.35;5.72;;;;;;;;;;5033596;28;20463;-72
2023/06/12 07:07:24;;;;;;;18.25;5.95;;;;;;;;;;5033128;28;20073;-72
2023/06/12 07:09:50;;;;;;;17.08;6.10;;;;;;;;;;5033535;28;20038;-72
2023/06/12 07:12:16;;;;;;;17.00;6.35;;;;;;;;;;5033464;28;20292;-74
2023/06/12 07:14:42;;;;;;;17.48;6.28;;;;;;;;;;5034083;28;20025;-72
2023/06/12 07:17:08;;;;;;;15.15;6.05;;;;;;;;;;5033659;28;20033;-72
2023/06/12 07:19:34;;;;;;;17.35;6.80;;;;;;;;;;5033376;28;20033;-73
2023/06/12 07:22:00;;;;;;;12.77;6.00;;;;;;;;;;5033457;28;20025;-72
2023/06/12 07:24:26;;;;;;;15.65;6.28;;;;;;;;;;5033732;28;20521;-73
2023/06/12 07:26:52;;;;;;;21.92;6.13;;;;;;;;;;5034172;28;20033;-73
2023/06/12 07:29:19;;;;;;;11.93;5.57;;;;;;;;;;5033853;28;20494;-73
2023/06/12 07:31:47;;;;;;;14.73;5.53;;;;;;;;;;5033296;28;20029;-73
2023/06/12 07:34:13;;;;;;;18.70;5.57;;;;;;;;;;5034009;28;20041;-72
2023/06/12 07:36:39;;;;;;;19.00;6.30;;;;;;;;;;5033625;28;20040;-73
2023/06/12 07:39:05;;;;;;;18.13;6.15;;;;;;;;;;5033712;28;20075;-73
2023/06/12 07:41:31;;;;;;;12.07;5.68;;;;;;;;;;5033187;28;20029;-72
2023/06/12 07:43:57;;;;;;;19.55;5.03;;;;;;;;;;5031700;28;20120;-73
2023/06/12 07:46:23;;;;;;;14.55;5.57;;;;;;;;;;5034764;28;20025;-73
2023/06/12 07:48:49;;;;;;;23.15;5.97;;;;;;;;;;5033897;28;20021;-73
2023/06/12 07:51:16;;;;;;;19.58;5.93;;;;;;;;;;5033262;28;20579;-73
2023/06/12 07:53:42;;;;;;;12.70;5.72;;;;;;;;;;5032599;28;20061;-72
2023/06/12 07:56:08;;;;;;;15.02;5.38;;;;;;;;;;5032963;28;20037;-72
2023/06/12 07:58:37;;;;;;;25.95;6.55;;;;;;;;;;5032956;28;20029;-73
2023/06/12 08:01:04;;;;;;;14.77;5.22;;;;;;;;;;5032841;28;20442;-73
2023/06/12 08:03:30;;;;;;;21.05;5.90;;;;;;;;;;5032813;28;20025;-72
2023/06/12 08:05:56;;;;;;;18.38;5.65;;;;;;;;;;5032982;28;20022;-72
2023/06/12 08:08:22;;;;;;;15.30;5.38;;;;;;;;;;5032515;28;20044;-73
2023/06/12 08:10:48;;;;;;;15.35;5.20;;;;;;;;;;5032379;28;20073;-72
2023/06/12 08:13:15;;;;;;;15.00;5.53;;;;;;;;;;5032582;28;20468;-70
2023/06/12 08:15:41;;;;;;;19.52;5.32;;;;;;;;;;5033616;28;20028;-74
2023/06/12 08:18:07;;;;;;;12.63;5.35;;;;;;;;;;5033636;28;20104;-73
2023/06/12 08:20:33;;;;;;;14.45;5.50;;;;;;;;;;5033193;28;20033;-71
2023/06/12 08:22:59;;;;;;;21.08;5.22;;;;;;;;;;5032991;28;20029;-71
2023/06/12 08:25:25;;;;;;;13.73;4.93;;;;;;;;;;5033368;28;20438;-72
2023/06/12 08:27:51;;;;;;;9.90;4.65;;;;;;;;;;5033701;28;20027;-73
2023/06/12 08:30:18;;;;;;;14.95;5.63;;;;;;;;;;5033460;28;20029;-71
2023/06/12 08:32:45;;;;;;;14.63;5.85;;;;;;;;;;5033110;28;20099;-73
2023/06/12 08:35:11;;;;;;;18.73;5.43;;;;;;;;;;5034187;28;20022;-72
2023/06/12 08:37:37;;;;;;;17.02;5.53;;;;;;;;;;5033981;28;20115;-72
2023/06/12 08:40:05;;;;;;;13.68;4.80;;;;;;;;;;5033271;28;20057;-71
2023/06/12 08:42:31;;;;;;;18.35;5.30;;;;;;;;;;5033277;28;20021;-73
2023/06/12 08:45:03;;;;;;;22.27;5.40;;;;;;;;;;5032406;28;20029;-73
2023/06/12 08:47:33;;;;;;;12.77;4.90;;;;;;;;;;5032259;28;20028;-74
2023/06/12 08:49:59;;;;;;;10.50;5.10;;;;;;;;;;5032218;28;20017;-73
2023/06/12 08:52:26;;;;;;;22.20;7.35;;;;;;;;;;5031526;28;20025;-73
2023/06/12 08:54:52;;;;;;;11.85;5.32;;;;;;;;;;5031820;28;20032;-73
2023/06/12 08:57:19;;;;;;;14.43;4.82;;;;;;;;;;5032171;28;20351;-72
2023/06/12 08:59:45;;;;;;;17.63;4.72;;;;;;;;;;5031882;28;20026;-72
2023/06/12 09:02:12;;;;;;;11.95;4.70;;;;;;;;;;5031703;28;20048;-72
2023/06/12 09:04:48;;;;;;;12.35;4.20;;;;;;;;;;5031784;28;20025;-72
2023/06/12 09:07:18;;;;;;;11.48;4.85;;;;;;;;;;5028804;28;20109;-73
2023/06/12 09:09:45;;;;;;;8.90;4.45;;;;;;;;;;5031761;28;20040;-72
2023/06/12 09:12:12;;;;;;;13.68;5.18;;;;;;;;;;5030674;28;20029;-73
2023/06/12 09:14:39;;;;;;;7.95;4.20;;;;;;;;;;5031458;28;20045;-72
2023/06/12 09:17:05;;;;;;;18.08;5.03;;;;;;;;;;5031439;28;20034;-72
2023/06/12 09:19:41;;;;;;;14.90;4.82;;;;;;;;;;5031016;28;20033;-71
2023/06/12 09:22:07;;;;;;;12.80;4.85;;;;;;;;;;5030439;28;20033;-72
2023/06/12 09:24:33;;;;;;;17.60;4.88;;;;;;;;;;5031424;28;20021;-72
2023/06/12 09:27:01;;;;;;;12.75;4.68;;;;;;;;;;5031597;28;20360;-72
2023/06/12 09:29:31;;;;;;;11.00;4.72;;;;;;;;;;5031522;28;20052;-73
2023/06/12 09:32:01;;;;;;;21.63;4.57;;;;;;;;;;5031133;28;20090;-72
2023/06/12 09:34:28;;;;;;;9.38;5.10;;;;;;;;;;5031280;28;20028;-71
2023/06/12 09:36:55;;;;;;;10.52;4.55;;;;;;;;;;5030506;28;20501;-72
2023/06/12 09:39:26;;;;;;;16.52;4.50;;;;;;;;;;5031949;28;20100;-71
2023/06/12 09:41:52;;;;;;;13.75;4.97;;;;;;;;;;5031997;28;20117;-73
2023/06/12 09:44:20;;;;;;;11.95;4.90;;;;;;;;;;5036218;28;20025;-73
2023/06/12 09:46:47;;;;;;;9.40;4.70;;;;;;;;;;5035906;28;20383;-76
2023/06/12 09:49:14;;;;;;;10.13;4.80;;;;;;;;;;5035841;28;20026;-73
2023/06/12 09:51:46;;;;;;;12.77;4.70;;;;;;;;;;5035377;28;20021;-73
2023/06/12 09:54:15;;;;;;;10.50;4.57;;;;;;;;;;5035634;28;20513;-72
2023/06/12 09:56:41;;;;;;;14.77;5.03;;;;;;;;;;5035176;28;20111;-72
2023/06/12 09:59:09;;;;;;;20.25;4.57;;;;;;;;;;5035192;28;20032;-69
2023/06/12 10:01:39;;;;;;;12.50;4.47;;;;;;;;;;5035713;28;20026;-72
2023/06/12 10:04:10;;;;;;;15.38;5.55;;;;;;;;;;5035518;28;20024;-70
2023/06/12 10:06:39;;;;;;;6.60;4.07;;;;;;;;;;5035601;28;20056;-72
2023/06/12 10:09:06;;;;;;;10.63;4.30;;;;;;;;;;5035341;28;20057;-74
2023/06/12 10:11:32;;;;;;;12.98;4.55;;;;;;;;;;5035342;28;20530;-73
2023/06/12 10:13:58;;;;;;;17.25;4.88;;;;;;;;;;5035107;28;20071;-72
2023/06/12 10:16:25;;;;;;;11.43;4.63;;;;;;;;;;5035196;28;20035;-72
2023/06/12 10:18:51;;;;;;;13.30;4.68;;;;;;;;;;5034895;28;20463;-73
2023/06/12 10:21:19;;;;;;;12.65;4.53;;;;;;;;;;5031988;28;20034;-74
2023/06/12 10:23:45;;;;;;;16.33;4.60;;;;;;;;;;5034728;28;20425;-73
2023/06/12 10:26:12;;;;;;;8.85;4.65;;;;;;;;;;5035006;28;20105;-73
2023/06/12 10:28:38;;;;;;;11.30;4.70;;;;;;;;;;5034508;28;20100;-72
2023/06/12 10:31:13;;;;;;;10.05;4.32;;;;;;;;;;5034452;28;20057;-72
2023/06/12 10:33:49;;;;;;;9.10;4.00;;;;;;;;;;5034185;28;20036;-73
2023/06/12 10:36:17;;;;;;;9.02;5.15;;;;;;;;;;5035266;28;20026;-69
2023/06/12 10:38:49;;;;;;;13.80;4.40;;;;;;;;;;5035402;28;20340;-73
2023/06/12 10:41:31;;;;;;;20.05;4.75;;;;;;;;;;5034243;28;20026;-74
2023/06/12 10:43:57;;;;;;;12.15;4.80;;;;;;;;;;5034593;28;20021;-74
2023/06/12 10:46:23;;;;;;;9.02;4.38;;;;;;;;;;5035103;28;20473;-72
2023/06/12 10:48:50;;;;;;;14.05;4.75;;;;;;;;;;5035199;28;20041;-72
2023/06/12 10:51:16;;;;;;;17.70;4.57;;;;;;;;;;5034371;28;20029;-74
2023/06/12 10:53:44;;;;;;;13.02;4.70;;;;;;;;;;5033074;28;20104;-73
2023/06/12 10:56:11;;;;;;;16.40;4.53;;;;;;;;;;5034243;28;20562;-72
2023/06/12 10:58:38;;;;;;;15.18;4.07;;;;;;;;;;5034160;28;20418;-73
2023/06/12 11:01:08;;;;;;;7.32;4.85;;;;;;;;;;5033803;28;20026;-73
2023/06/12 11:03:37;;;;;;;8.18;4.40;;;;;;;;;;5033841;28;20024;-73
2023/06/12 11:06:08;;;;;;;7.28;3.85;;;;;;;;;;5033814;28;20459;-73
2023/06/12 11:08:34;;;;;;;14.68;4.65;;;;;;;;;;5034637;28;20063;-72
2023/06/12 11:11:26;;;;;;;25.70;4.40;;;;;;;;;;5033786;28;20128;-75
2023/06/12 11:13:52;;;;;;;10.20;4.22;;;;;;;;;;5032889;28;20502;-71
2023/06/12 11:16:26;;;;;;;11.65;3.85;;;;;;;;;;5034126;28;20080;-72
2023/06/12 11:19:05;;;;;;;12.63;4.35;;;;;;;;;;5035007;28;20030;-73
2023/06/12 11:21:32;;;;;;;10.75;4.50;;;;;;;;;;5034285;28;20447;-72
2023/06/12 11:24:04;;;;;;;9.82;3.88;;;;;;;;;;5033586;28;20025;-72
2023/06/12 11:26:31;;;;;;;13.90;4.22;;;;;;;;;;5033953;28;20026;-72
2023/06/12 11:29:12;;;;;;;15.82;4.82;;;;;;;;;;5034075;28;20029;-76
2023/06/12 11:31:38;;;;;;;9.40;3.55;;;;;;;;;;5033694;28;20026;-71
2023/06/12 11:34:04;;;;;;;9.88;4.30;;;;;;;;;;5033566;28;20043;-75
2023/06/12 11:36:30;;;;;;;7.85;4.47;;;;;;;;;;5034084;28;20030;-73
2023/06/12 11:38:56;;;;;;;9.45;4.50;;;;;;;;;;5033699;28;20416;-73
2023/06/12 11:41:22;;;;;;;10.30;3.97;;;;;;;;;;5033147;28;20110;-75
2023/06/12 11:43:48;;;;;;;9.77;4.15;;;;;;;;;;5033435;28;20022;-73
2023/06/12 11:46:14;;;;;;;6.30;3.92;;;;;;;;;;5031605;28;20208;-74
2023/06/12 11:48:40;;;;;;;8.18;4.03;;;;;;;;;;5033260;28;20403;-73
2023/06/12 11:51:08;;;;;;;9.70;4.00;;;;;;;;;;5032951;28;20036;-73
2023/06/12 11:53:34;;;;;;;9.15;3.50;;;;;;;;;;5031870;28;20026;-73
2023/06/12 11:56:02;;;;;;;11.48;4.45;;;;;;;;;;5031860;28;20025;-73
2023/06/12 11:58:31;;;;;;;10.65;3.28;;;;;;;;;;5032920;28;20364;-75
2023/06/12 12:01:08;;;;;;;12.88;3.40;;;;;;;;;;5032730;28;20029;-74
2023/06/12 12:03:37;;;;;;;16.58;3.60;;;;;;;;;;5032223;28;20017;-73
2023/06/12 12:06:03;;;;;;;15.52;4.03;;;;;;;;;;5032437;28;20443;-72
2023/06/12 12:08:29;;;;;;;16.30;4.53;;;;;;;;;;5030892;28;20490;-73
2023/06/12 12:10:55;;;;;;;12.63;3.78;;;;;;;;;;5032230;28;20395;-72
2023/06/12 12:13:21;;;;;;;9.32;3.30;;;;;;;;;;5031787;28;20025;-73
2023/06/12 12:15:47;;;;;;;8.90;4.07;;;;;;;;;;5032163;28;20033;-74
2023/06/12 12:18:13;;;;;;;9.38;3.80;;;;;;;;;;5031990;28;20042;-73
2023/06/12 12:20:39;;;;;;;15.50;3.53;;;;;;;;;;5032086;28;20034;-75
2023/06/12 12:23:10;;;;;;;9.27;3.90;;;;;;;;;;5033934;28;20455;-74
2023/06/12 12:25:36;;;;;;;6.65;3.63;;;;;;;;;;5033347;28;20165;-75
2023/06/12 12:28:03;;;;;;;13.63;3.78;;;;;;;;;;5032532;28;20100;-74
2023/06/12 12:30:30;;;;;;;13.35;3.40;;;;;;;;;;5032404;28;20026;-74
2023/06/12 12:32:56;;;;;;;7.40;3.55;;;;;;;;;;5034283;28;20025;-74
2023/06/12 12:35:23;;;;;;;8.88;3.25;;;;;;;;;;5034454;28;20057;-76
2023/06/12 12:37:50;;;;;;;11.88;3.53;;;;;;;;;;5034472;28;20029;-73
2023/06/12 12:40:16;;;;;;;15.70;3.90;;;;;;;;;;5033453;28;20438;-74
2023/06/12 12:42:47;;;;;;;13.13;3.75;;;;;;;;;;5032527;28;20084;-77
2023/06/12 12:45:14;;;;;;;11.52;3.92;;;;;;;;;;5032327;28;20026;-73
2023/06/12 12:47:40;;;;;;;11.32;3.80;;;;;;;;;;5031984;28;20021;-73
2023/06/12 12:50:07;;;;;;;5.93;3.47;;;;;;;;;;5031799;28;20034;-73
2023/06/12 12:52:33;;;;;;;15.93;8.23;;;;;;;;;;5032296;28;20097;-72
2023/06/12 12:54:59;;;;;;;13.00;3.70;;;;;;;;;;5033064;28;20033;-73
2023/06/12 12:57:32;;;;;;;18.15;4.00;;;;;;;;;;5032792;28;20021;-74
2023/06/12 12:59:59;;;;;;;7.20;3.55;;;;;;;;;;5032089;28;20033;-74
2023/06/12 13:02:25;;;;;;;9.23;4.07;;;;;;;;;;5032227;28;20029;-72
2023/06/12 13:04:51;;;;;;;14.45;3.90;;;;;;;;;;5032180;28;20018;-72
2023/06/12 13:07:17;;;;;;;10.20;3.70;;;;;;;;;;5030065;28;20514;-73
2023/06/12 13:09:44;;;;;;;22.08;10.52;;;;;;;;;;5032510;28;20410;-73
2023/06/12 13:12:10;;;;;;;10.45;4.35;;;;;;;;;;5032491;28;20026;-72
2023/06/12 13:14:36;;;;;;;9.13;3.55;;;;;;;;;;5033450;28;20100;-73
2023/06/12 13:17:03;;;;;;;15.73;4.13;;;;;;;;;;5033605;28;20064;-74
2023/06/12 13:19:29;;;;;;;10.35;4.20;;;;;;;;;;5034825;28;20033;-73
2023/06/12 13:21:55;;;;;;;9.05;3.97;;;;;;;;;;5036582;28;20036;-75
2023/06/12 13:24:21;;;;;;;13.18;3.78;;;;;;;;;;5032881;28;20026;-74
2023/06/12 13:26:47;;;;;;;8.68;3.63;;;;;;;;;;5035007;28;20080;-77
2023/06/12 13:29:13;;;;;;;12.30;4.00;;;;;;;;;;5032719;28;20164;-73
2023/06/12 13:31:39;;;;;;;12.30;3.05;;;;;;;;;;5031284;28;20148;-74
2023/06/12 13:34:08;;;;;;;7.32;3.50;;;;;;;;;;5031372;28;20084;-74
2023/06/12 13:36:34;;;;;;;14.18;3.95;;;;;;;;;;5031332;28;20092;-72
2023/06/12 13:39:00;;;;;;;12.35;3.63;;;;;;;;;;5033883;28;20053;-73
2023/06/12 13:41:27;;;;;;;10.27;3.70;;;;;;;;;;5037151;28;20048;-74
2023/06/12 13:43:53;;;;;;;6.68;3.75;;;;;;;;;;5031606;28;20013;-72
2023/06/12 13:46:19;;;;;;;13.30;4.03;;;;;;;;;;5032256;28;20483;-73
2023/06/12 13:48:45;;;;;;;11.35;3.70;;;;;;;;;;5033107;28;20084;-74
2023/06/12 13:51:12;;;;;;;10.57;4.18;;;;;;;;;;5032822;28;20026;-74
2023/06/12 13:53:39;;;;;;;23.00;4.55;;;;;;;;;;5033932;28;20029;-73
2023/06/12 13:56:07;;;;;;;10.43;3.67;;;;;;;;;;5034695;28;20463;-73
2023/06/12 13:58:33;;;;;;;7.80;4.13;;;;;;;;;;5034363;28;20108;-73
2023/06/12 14:00:59;;;;;;;10.98;4.07;;;;;;;;;;5032372;28;20549;-73
2023/06/12 14:03:26;;;;;;;13.30;3.72;;;;;;;;;;5030780;28;20025;-72
2023/06/12 14:05:52;;;;;;;8.88;3.70;;;;;;;;;;5031307;28;20029;-74
2023/06/12 14:08:18;;;;;;;8.23;4.55;;;;;;;;;;5031200;28;20025;-72
2023/06/12 14:10:44;;;;;;;11.30;3.78;;;;;;;;;;5031745;28;20143;-74
2023/06/12 14:13:11;;;;;;;11.05;4.20;;;;;;;;;;5031618;28;20490;-74
2023/06/12 14:15:38;;;;;;;9.75;4.32;;;;;;;;;;5031851;28;20101;-73
2023/06/12 14:18:04;;;;;;;9.98;3.92;;;;;;;;;;5031239;28;20080;-72
2023/06/12 14:20:31;;;;;;;10.18;3.80;;;;;;;;;;5030812;28;20403;-72
2023/06/12 14:23:00;;;;;;;9.68;3.70;;;;;;;;;;5030602;28;20037;-73
2023/06/12 14:25:27;;;;;;;10.00;3.60;;;;;;;;;;5030799;28;20049;-73
2023/06/12 14:27:53;;;;;;;11.20;4.32;;;;;;;;;;5030694;28;20029;-73
2023/06/12 14:30:19;;;;;;;10.25;4.18;;;;;;;;;;5033662;28;20032;-73